sensor_id;sensor_type;location;lat;lon;timestamp;P1;durP1;ratioP1;P2;durP2;ratioP2
8319;SDS011;4197;42.130;24.746;2022-07-23T00:01:13;14.82;;;7.45;;
8319;SDS011;4197;42.130;24.746;2022-07-23T00:03:49;16.40;;;7.32;;
8319;SDS011;4197;42.130;24.746;2022-07-23T00:06:18;14.82;;;6.65;;
8319;SDS011;4197;42.130;24.746;2022-07-23T00:08:47;16.02;;;7.38;;
8319;SDS011;4197;42.130;24.746;2022-07-23T00:11:15;11.90;;;6.22;;
8319;SDS011;4197;42.130;24.746;2022-07-23T00:13:44;10.68;;;6.75;;
8319;SDS011;4197;42.130;24.746;2022-07-23T00:16:13;10.70;;;6.88;;
8319;SDS011;4197;42.130;24.746;2022-07-23T00:18:41;13.18;;;6.90;;
8319;SDS011;4197;42.130;24.746;2022-07-23T00:21:09;11.18;;;5.88;;
8319;SDS011;4197;42.130;24.746;2022-07-23T00:23:37;12.35;;;6.57;;
8319;SDS011;4197;42.130;24.746;2022-07-23T00:26:07;10.40;;;6.20;;
8319;SDS011;4197;42.130;24.746;2022-07-23T00:28:35;10.32;;;6.78;;
8319;SDS011;4197;42.130;24.746;2022-07-23T00:31:03;12.32;;;7.13;;
8319;SDS011;4197;42.130;24.746;2022-07-23T00:33:31;18.52;;;8.10;;
8319;SDS011;4197;42.130;24.746;2022-07-23T00:35:59;11.38;;;6.82;;
8319;SDS011;4197;42.130;24.746;2022-07-23T00:38:27;14.82;;;7.97;;
8319;SDS011;4197;42.130;24.746;2022-07-23T00:40:56;13.98;;;9.05;;
8319;SDS011;4197;42.130;24.746;2022-07-23T00:43:25;16.17;;;12.38;;
8319;SDS011;4197;42.130;24.746;2022-07-23T00:45:53;20.25;;;13.00;;
8319;SDS011;4197;42.130;24.746;2022-07-23T00:48:22;18.77;;;13.57;;
8319;SDS011;4197;42.130;24.746;2022-07-23T00:50:50;16.60;;;13.35;;
8319;SDS011;4197;42.130;24.746;2022-07-23T00:53:18;17.10;;;14.52;;
8319;SDS011;4197;42.130;24.746;2022-07-23T00:55:47;17.95;;;12.85;;
8319;SDS011;4197;42.130;24.746;2022-07-23T00:58:16;24.17;;;14.90;;
8319;SDS011;4197;42.130;24.746;2022-07-23T01:00:46;17.08;;;11.93;;
8319;SDS011;4197;42.130;24.746;2022-07-23T01:03:14;14.88;;;9.77;;
8319;SDS011;4197;42.130;24.746;2022-07-23T01:05:42;13.65;;;8.40;;
8319;SDS011;4197;42.130;24.746;2022-07-23T01:08:11;23.00;;;9.48;;
8319;SDS011;4197;42.130;24.746;2022-07-23T01:10:40;13.55;;;8.15;;
8319;SDS011;4197;42.130;24.746;2022-07-23T01:13:09;11.90;;;8.15;;
8319;SDS011;4197;42.130;24.746;2022-07-23T01:15:37;9.48;;;8.40;;
8319;SDS011;4197;42.130;24.746;2022-07-23T01:18:08;10.85;;;7.00;;
8319;SDS011;4197;42.130;24.746;2022-07-23T01:20:37;12.52;;;7.70;;
8319;SDS011;4197;42.130;24.746;2022-07-23T01:23:06;12.75;;;7.38;;
8319;SDS011;4197;42.130;24.746;2022-07-23T01:25:34;11.27;;;7.38;;
8319;SDS011;4197;42.130;24.746;2022-07-23T01:28:03;13.45;;;9.60;;
8319;SDS011;4197;42.130;24.746;2022-07-23T01:30:32;13.90;;;8.95;;
8319;SDS011;4197;42.130;24.746;2022-07-23T01:33:00;12.85;;;8.98;;
8319;SDS011;4197;42.130;24.746;2022-07-23T01:35:28;17.05;;;9.20;;
8319;SDS011;4197;42.130;24.746;2022-07-23T01:37:56;15.13;;;10.00;;
8319;SDS011;4197;42.130;24.746;2022-07-23T01:40:26;17.73;;;10.88;;
8319;SDS011;4197;42.130;24.746;2022-07-23T01:42:54;18.77;;;11.10;;
8319;SDS011;4197;42.130;24.746;2022-07-23T01:45:22;20.02;;;12.07;;
8319;SDS011;4197;42.130;24.746;2022-07-23T01:47:51;19.88;;;13.52;;
8319;SDS011;4197;42.130;24.746;2022-07-23T01:50:19;20.45;;;13.07;;
8319;SDS011;4197;42.130;24.746;2022-07-23T01:52:47;19.30;;;12.70;;
8319;SDS011;4197;42.130;24.746;2022-07-23T01:55:15;17.73;;;12.45;;
8319;SDS011;4197;42.130;24.746;2022-07-23T01:57:46;17.10;;;12.75;;
8319;SDS011;4197;42.130;24.746;2022-07-23T02:00:15;18.23;;;12.63;;
8319;SDS011;4197;42.130;24.746;2022-07-23T02:02:43;18.55;;;13.05;;
8319;SDS011;4197;42.130;24.746;2022-07-23T02:05:11;19.92;;;12.95;;
8319;SDS011;4197;42.130;24.746;2022-07-23T02:07:39;18.63;;;12.90;;
8319;SDS011;4197;42.130;24.746;2022-07-23T02:10:08;18.92;;;13.90;;
8319;SDS011;4197;42.130;24.746;2022-07-23T02:12:36;21.90;;;15.25;;
8319;SDS011;4197;42.130;24.746;2022-07-23T02:15:07;23.38;;;12.77;;
8319;SDS011;4197;42.130;24.746;2022-07-23T02:17:35;23.08;;;12.95;;
8319;SDS011;4197;42.130;24.746;2022-07-23T02:20:04;21.70;;;13.27;;
8319;SDS011;4197;42.130;24.746;2022-07-23T02:22:33;17.77;;;12.93;;
8319;SDS011;4197;42.130;24.746;2022-07-23T02:25:02;19.25;;;13.18;;
8319;SDS011;4197;42.130;24.746;2022-07-23T02:27:31;18.10;;;13.10;;
8319;SDS011;4197;42.130;24.746;2022-07-23T02:29:59;20.77;;;13.23;;
8319;SDS011;4197;42.130;24.746;2022-07-23T02:32:29;19.13;;;12.60;;
8319;SDS011;4197;42.130;24.746;2022-07-23T02:34:58;19.20;;;12.98;;
8319;SDS011;4197;42.130;24.746;2022-07-23T02:37:26;15.95;;;12.07;;
8319;SDS011;4197;42.130;24.746;2022-07-23T02:39:54;16.70;;;11.68;;
8319;SDS011;4197;42.130;24.746;2022-07-23T02:42:23;16.48;;;11.13;;
8319;SDS011;4197;42.130;24.746;2022-07-23T02:44:51;14.88;;;11.02;;
8319;SDS011;4197;42.130;24.746;2022-07-23T02:47:19;15.60;;;10.25;;
8319;SDS011;4197;42.130;24.746;2022-07-23T02:49:49;17.98;;;11.93;;
8319;SDS011;4197;42.130;24.746;2022-07-23T02:52:17;18.60;;;11.93;;
8319;SDS011;4197;42.130;24.746;2022-07-23T02:54:45;16.30;;;11.85;;
8319;SDS011;4197;42.130;24.746;2022-07-23T02:57:14;12.63;;;10.05;;
8319;SDS011;4197;42.130;24.746;2022-07-23T02:59:42;17.27;;;10.38;;
8319;SDS011;4197;42.130;24.746;2022-07-23T03:02:11;16.05;;;10.90;;
8319;SDS011;4197;42.130;24.746;2022-07-23T03:04:39;15.07;;;9.82;;
8319;SDS011;4197;42.130;24.746;2022-07-23T03:07:10;15.02;;;9.95;;
8319;SDS011;4197;42.130;24.746;2022-07-23T03:09:38;13.70;;;10.13;;
8319;SDS011;4197;42.130;24.746;2022-07-23T03:12:07;14.43;;;9.27;;
8319;SDS011;4197;42.130;24.746;2022-07-23T03:14:39;13.93;;;9.45;;
8319;SDS011;4197;42.130;24.746;2022-07-23T03:17:08;13.65;;;9.50;;
8319;SDS011;4197;42.130;24.746;2022-07-23T03:19:36;17.27;;;9.23;;
8319;SDS011;4197;42.130;24.746;2022-07-23T03:22:05;11.00;;;7.97;;
8319;SDS011;4197;42.130;24.746;2022-07-23T03:24:34;16.30;;;8.80;;
8319;SDS011;4197;42.130;24.746;2022-07-23T03:27:20;13.65;;;8.45;;
8319;SDS011;4197;42.130;24.746;2022-07-23T03:29:49;9.05;;;7.93;;
8319;SDS011;4197;42.130;24.746;2022-07-23T03:32:18;14.85;;;8.43;;
8319;SDS011;4197;42.130;24.746;2022-07-23T03:34:46;14.55;;;8.10;;
8319;SDS011;4197;42.130;24.746;2022-07-23T03:37:14;12.75;;;8.13;;
8319;SDS011;4197;42.130;24.746;2022-07-23T03:39:44;14.45;;;7.55;;
8319;SDS011;4197;42.130;24.746;2022-07-23T03:42:13;12.07;;;7.93;;
8319;SDS011;4197;42.130;24.746;2022-07-23T03:44:42;13.90;;;8.50;;
8319;SDS011;4197;42.130;24.746;2022-07-23T03:47:10;12.13;;;8.13;;
8319;SDS011;4197;42.130;24.746;2022-07-23T03:49:38;12.88;;;8.57;;
8319;SDS011;4197;42.130;24.746;2022-07-23T03:52:06;17.98;;;8.70;;
8319;SDS011;4197;42.130;24.746;2022-07-23T03:54:34;14.23;;;7.90;;
8319;SDS011;4197;42.130;24.746;2022-07-23T03:57:04;11.57;;;7.85;;
8319;SDS011;4197;42.130;24.746;2022-07-23T03:59:32;12.95;;;8.07;;
8319;SDS011;4197;42.130;24.746;2022-07-23T04:02:00;9.20;;;7.30;;
8319;SDS011;4197;42.130;24.746;2022-07-23T04:04:29;11.23;;;7.18;;
8319;SDS011;4197;42.130;24.746;2022-07-23T04:06:57;9.40;;;6.88;;
8319;SDS011;4197;42.130;24.746;2022-07-23T04:09:25;13.75;;;7.32;;
8319;SDS011;4197;42.130;24.746;2022-07-23T04:11:53;10.95;;;6.97;;
8319;SDS011;4197;42.130;24.746;2022-07-23T04:14:23;12.25;;;6.47;;
8319;SDS011;4197;42.130;24.746;2022-07-23T04:16:51;12.45;;;7.57;;
8319;SDS011;4197;42.130;24.746;2022-07-23T04:19:19;13.43;;;8.50;;
8319;SDS011;4197;42.130;24.746;2022-07-23T04:21:48;12.48;;;8.73;;
8319;SDS011;4197;42.130;24.746;2022-07-23T04:24:16;16.05;;;8.40;;
8319;SDS011;4197;42.130;24.746;2022-07-23T04:26:45;13.70;;;7.85;;
8319;SDS011;4197;42.130;24.746;2022-07-23T04:29:13;11.77;;;8.55;;
8319;SDS011;4197;42.130;24.746;2022-07-23T04:31:43;15.07;;;8.25;;
8319;SDS011;4197;42.130;24.746;2022-07-23T04:34:11;15.10;;;8.65;;
8319;SDS011;4197;42.130;24.746;2022-07-23T04:36:39;15.75;;;8.52;;
8319;SDS011;4197;42.130;24.746;2022-07-23T04:39:08;13.77;;;8.75;;
8319;SDS011;4197;42.130;24.746;2022-07-23T04:41:36;13.85;;;8.85;;
8319;SDS011;4197;42.130;24.746;2022-07-23T04:44:04;12.40;;;8.90;;
8319;SDS011;4197;42.130;24.746;2022-07-23T04:46:33;14.85;;;8.40;;
8319;SDS011;4197;42.130;24.746;2022-07-23T04:49:02;12.85;;;8.95;;
8319;SDS011;4197;42.130;24.746;2022-07-23T04:51:32;13.15;;;8.43;;
8319;SDS011;4197;42.130;24.746;2022-07-23T04:54:00;13.77;;;9.48;;
8319;SDS011;4197;42.130;24.746;2022-07-23T04:56:28;16.85;;;8.98;;
8319;SDS011;4197;42.130;24.746;2022-07-23T04:58:56;15.80;;;9.02;;
8319;SDS011;4197;42.130;24.746;2022-07-23T05:01:25;19.23;;;9.15;;
8319;SDS011;4197;42.130;24.746;2022-07-23T05:03:53;14.93;;;8.80;;
8319;SDS011;4197;42.130;24.746;2022-07-23T05:06:22;12.27;;;8.50;;
8319;SDS011;4197;42.130;24.746;2022-07-23T05:08:51;14.25;;;8.75;;
8319;SDS011;4197;42.130;24.746;2022-07-23T05:11:19;17.60;;;9.20;;
8319;SDS011;4197;42.130;24.746;2022-07-23T05:13:52;14.85;;;9.40;;
8319;SDS011;4197;42.130;24.746;2022-07-23T05:16:21;13.23;;;9.05;;
8319;SDS011;4197;42.130;24.746;2022-07-23T05:18:49;13.25;;;8.82;;
8319;SDS011;4197;42.130;24.746;2022-07-23T05:21:17;13.52;;;8.88;;
8319;SDS011;4197;42.130;24.746;2022-07-23T05:23:46;15.80;;;9.32;;
8319;SDS011;4197;42.130;24.746;2022-07-23T05:26:15;12.93;;;8.93;;
8319;SDS011;4197;42.130;24.746;2022-07-23T05:28:43;15.23;;;9.00;;
8319;SDS011;4197;42.130;24.746;2022-07-23T05:31:15;14.98;;;9.40;;
8319;SDS011;4197;42.130;24.746;2022-07-23T05:33:44;19.60;;;10.90;;
8319;SDS011;4197;42.130;24.746;2022-07-23T05:36:13;20.02;;;16.48;;
8319;SDS011;4197;42.130;24.746;2022-07-23T05:38:41;17.52;;;9.75;;
8319;SDS011;4197;42.130;24.746;2022-07-23T05:41:11;12.82;;;8.43;;
8319;SDS011;4197;42.130;24.746;2022-07-23T05:43:39;15.95;;;8.93;;
8319;SDS011;4197;42.130;24.746;2022-07-23T05:46:08;14.20;;;8.95;;
8319;SDS011;4197;42.130;24.746;2022-07-23T05:48:36;18.80;;;9.45;;
8319;SDS011;4197;42.130;24.746;2022-07-23T05:51:04;17.27;;;8.80;;
8319;SDS011;4197;42.130;24.746;2022-07-23T05:53:33;14.38;;;8.40;;
8319;SDS011;4197;42.130;24.746;2022-07-23T05:56:02;26.45;;;9.75;;
8319;SDS011;4197;42.130;24.746;2022-07-23T05:58:32;16.15;;;8.82;;
8319;SDS011;4197;42.130;24.746;2022-07-23T06:01:00;15.35;;;8.43;;
8319;SDS011;4197;42.130;24.746;2022-07-23T06:03:28;15.05;;;8.95;;
8319;SDS011;4197;42.130;24.746;2022-07-23T06:05:56;13.02;;;8.73;;
8319;SDS011;4197;42.130;24.746;2022-07-23T06:08:24;13.50;;;7.85;;
8319;SDS011;4197;42.130;24.746;2022-07-23T06:10:53;15.32;;;8.57;;
8319;SDS011;4197;42.130;24.746;2022-07-23T06:13:21;17.42;;;9.18;;
8319;SDS011;4197;42.130;24.746;2022-07-23T06:15:50;12.27;;;8.75;;
8319;SDS011;4197;42.130;24.746;2022-07-23T06:18:18;16.25;;;9.15;;
8319;SDS011;4197;42.130;24.746;2022-07-23T06:20:47;15.32;;;10.10;;
8319;SDS011;4197;42.130;24.746;2022-07-23T06:23:17;15.48;;;9.63;;
8319;SDS011;4197;42.130;24.746;2022-07-23T06:25:46;14.48;;;9.13;;
8319;SDS011;4197;42.130;24.746;2022-07-23T06:28:14;15.38;;;8.15;;
8319;SDS011;4197;42.130;24.746;2022-07-23T06:30:42;12.93;;;8.20;;
8319;SDS011;4197;42.130;24.746;2022-07-23T06:33:12;14.32;;;8.23;;
8319;SDS011;4197;42.130;24.746;2022-07-23T06:35:40;14.90;;;8.55;;
8319;SDS011;4197;42.130;24.746;2022-07-23T06:38:09;10.00;;;6.75;;
8319;SDS011;4197;42.130;24.746;2022-07-23T06:40:37;15.70;;;7.25;;
8319;SDS011;4197;42.130;24.746;2022-07-23T06:43:05;11.32;;;6.65;;
8319;SDS011;4197;42.130;24.746;2022-07-23T06:45:33;10.43;;;6.22;;
8319;SDS011;4197;42.130;24.746;2022-07-23T06:48:01;12.07;;;6.55;;
8319;SDS011;4197;42.130;24.746;2022-07-23T06:50:31;12.27;;;6.10;;
8319;SDS011;4197;42.130;24.746;2022-07-23T06:52:59;11.95;;;5.97;;
8319;SDS011;4197;42.130;24.746;2022-07-23T06:55:28;15.57;;;7.28;;
8319;SDS011;4197;42.130;24.746;2022-07-23T06:57:57;12.68;;;6.50;;
8319;SDS011;4197;42.130;24.746;2022-07-23T07:00:26;10.98;;;6.10;;
8319;SDS011;4197;42.130;24.746;2022-07-23T07:02:54;13.23;;;6.63;;
8319;SDS011;4197;42.130;24.746;2022-07-23T07:05:22;11.30;;;6.60;;
8319;SDS011;4197;42.130;24.746;2022-07-23T07:07:55;22.52;;;8.32;;
8319;SDS011;4197;42.130;24.746;2022-07-23T07:10:24;17.40;;;7.10;;
8319;SDS011;4197;42.130;24.746;2022-07-23T07:12:52;16.00;;;7.00;;
8319;SDS011;4197;42.130;24.746;2022-07-23T07:15:20;11.88;;;6.32;;
8319;SDS011;4197;42.130;24.746;2022-07-23T07:17:48;17.88;;;6.90;;
8319;SDS011;4197;42.130;24.746;2022-07-23T07:20:17;12.30;;;6.05;;
8319;SDS011;4197;42.130;24.746;2022-07-23T07:22:46;26.90;;;7.72;;
8319;SDS011;4197;42.130;24.746;2022-07-23T07:25:16;11.05;;;6.70;;
8319;SDS011;4197;42.130;24.746;2022-07-23T07:27:44;12.13;;;6.70;;
8319;SDS011;4197;42.130;24.746;2022-07-23T07:30:12;21.83;;;7.20;;
8319;SDS011;4197;42.130;24.746;2022-07-23T07:32:41;13.85;;;6.57;;
8319;SDS011;4197;42.130;24.746;2022-07-23T07:35:25;12.90;;;6.30;;
8319;SDS011;4197;42.130;24.746;2022-07-23T07:37:53;13.18;;;6.28;;
8319;SDS011;4197;42.130;24.746;2022-07-23T07:40:22;10.95;;;6.32;;
8319;SDS011;4197;42.130;24.746;2022-07-23T07:42:58;17.38;;;6.78;;
8319;SDS011;4197;42.130;24.746;2022-07-23T07:45:28;8.13;;;5.40;;
8319;SDS011;4197;42.130;24.746;2022-07-23T07:47:56;9.50;;;5.85;;
8319;SDS011;4197;42.130;24.746;2022-07-23T07:50:25;11.88;;;6.00;;
8319;SDS011;4197;42.130;24.746;2022-07-23T07:52:53;11.80;;;6.32;;
8319;SDS011;4197;42.130;24.746;2022-07-23T07:55:23;9.30;;;5.78;;
8319;SDS011;4197;42.130;24.746;2022-07-23T07:57:51;11.23;;;6.20;;
8319;SDS011;4197;42.130;24.746;2022-07-23T08:00:19;11.43;;;6.03;;
8319;SDS011;4197;42.130;24.746;2022-07-23T08:02:49;11.10;;;5.85;;
8319;SDS011;4197;42.130;24.746;2022-07-23T08:05:19;15.98;;;6.50;;
8319;SDS011;4197;42.130;24.746;2022-07-23T08:07:53;9.93;;;5.68;;
8319;SDS011;4197;42.130;24.746;2022-07-23T08:10:23;10.32;;;6.60;;
8319;SDS011;4197;42.130;24.746;2022-07-23T08:12:53;11.30;;;5.53;;
8319;SDS011;4197;42.130;24.746;2022-07-23T08:15:23;16.17;;;6.38;;
8319;SDS011;4197;42.130;24.746;2022-07-23T08:17:52;9.57;;;5.85;;
8319;SDS011;4197;42.130;24.746;2022-07-23T08:20:22;10.25;;;5.53;;
8319;SDS011;4197;42.130;24.746;2022-07-23T08:22:51;8.95;;;6.15;;
8319;SDS011;4197;42.130;24.746;2022-07-23T08:25:22;13.18;;;6.07;;
8319;SDS011;4197;42.130;24.746;2022-07-23T08:27:52;10.30;;;5.60;;
8319;SDS011;4197;42.130;24.746;2022-07-23T08:30:21;12.80;;;5.13;;
8319;SDS011;4197;42.130;24.746;2022-07-23T08:32:51;9.93;;;5.30;;
8319;SDS011;4197;42.130;24.746;2022-07-23T08:35:21;12.77;;;5.57;;
8319;SDS011;4197;42.130;24.746;2022-07-23T08:37:52;5.75;;;5.05;;
8319;SDS011;4197;42.130;24.746;2022-07-23T08:40:21;11.73;;;5.63;;
8319;SDS011;4197;42.130;24.746;2022-07-23T08:42:51;10.48;;;5.68;;
8319;SDS011;4197;42.130;24.746;2022-07-23T08:45:20;11.30;;;5.80;;
8319;SDS011;4197;42.130;24.746;2022-07-23T08:47:50;11.57;;;5.28;;
8319;SDS011;4197;42.130;24.746;2022-07-23T08:50:19;9.57;;;5.50;;
8319;SDS011;4197;42.130;24.746;2022-07-23T08:52:48;26.35;;;6.35;;
8319;SDS011;4197;42.130;24.746;2022-07-23T08:55:17;15.00;;;5.75;;
8319;SDS011;4197;42.130;24.746;2022-07-23T08:57:46;19.88;;;5.70;;
8319;SDS011;4197;42.130;24.746;2022-07-23T09:00:18;11.10;;;5.35;;
8319;SDS011;4197;42.130;24.746;2022-07-23T09:02:47;7.55;;;4.90;;
8319;SDS011;4197;42.130;24.746;2022-07-23T09:05:18;13.05;;;5.68;;
8319;SDS011;4197;42.130;24.746;2022-07-23T09:08:06;18.35;;;7.65;;
8319;SDS011;4197;42.130;24.746;2022-07-23T09:10:46;13.48;;;5.82;;
8319;SDS011;4197;42.130;24.746;2022-07-23T09:13:31;7.93;;;5.45;;
8319;SDS011;4197;42.130;24.746;2022-07-23T09:16:04;15.05;;;5.63;;
8319;SDS011;4197;42.130;24.746;2022-07-23T09:18:35;7.95;;;5.22;;
8319;SDS011;4197;42.130;24.746;2022-07-23T09:21:08;8.80;;;4.70;;
8319;SDS011;4197;42.130;24.746;2022-07-23T09:23:44;11.23;;;5.03;;
8319;SDS011;4197;42.130;24.746;2022-07-23T09:29:05;12.77;;;5.35;;
8319;SDS011;4197;42.130;24.746;2022-07-23T09:31:44;11.20;;;5.28;;
8319;SDS011;4197;42.130;24.746;2022-07-23T09:34:15;12.23;;;5.80;;
8319;SDS011;4197;42.130;24.746;2022-07-23T09:36:45;7.32;;;4.50;;
8319;SDS011;4197;42.130;24.746;2022-07-23T09:39:14;12.18;;;5.15;;
8319;SDS011;4197;42.130;24.746;2022-07-23T09:41:45;12.18;;;5.38;;
8319;SDS011;4197;42.130;24.746;2022-07-23T09:44:15;9.45;;;4.93;;
8319;SDS011;4197;42.130;24.746;2022-07-23T09:46:51;5.88;;;4.72;;
8319;SDS011;4197;42.130;24.746;2022-07-23T09:49:26;7.53;;;4.35;;
8319;SDS011;4197;42.130;24.746;2022-07-23T09:51:55;9.65;;;4.65;;
8319;SDS011;4197;42.130;24.746;2022-07-23T09:54:28;10.95;;;5.15;;
8319;SDS011;4197;42.130;24.746;2022-07-23T09:57:00;7.93;;;4.57;;
8319;SDS011;4197;42.130;24.746;2022-07-23T09:59:31;12.18;;;4.32;;
8319;SDS011;4197;42.130;24.746;2022-07-23T10:02:04;8.38;;;4.45;;
8319;SDS011;4197;42.130;24.746;2022-07-23T10:04:33;6.10;;;4.00;;
8319;SDS011;4197;42.130;24.746;2022-07-23T10:07:04;7.97;;;4.70;;
8319;SDS011;4197;42.130;24.746;2022-07-23T10:09:33;10.48;;;4.40;;
8319;SDS011;4197;42.130;24.746;2022-07-23T10:12:04;5.82;;;3.90;;
8319;SDS011;4197;42.130;24.746;2022-07-23T10:14:50;7.18;;;4.40;;
8319;SDS011;4197;42.130;24.746;2022-07-23T10:17:20;10.20;;;4.50;;
8319;SDS011;4197;42.130;24.746;2022-07-23T10:19:48;10.63;;;5.18;;
8319;SDS011;4197;42.130;24.746;2022-07-23T10:22:19;4.90;;;3.95;;
8319;SDS011;4197;42.130;24.746;2022-07-23T10:24:52;10.90;;;4.97;;
8319;SDS011;4197;42.130;24.746;2022-07-23T10:30:18;8.40;;;4.25;;
8319;SDS011;4197;42.130;24.746;2022-07-23T10:32:56;10.95;;;4.40;;
8319;SDS011;4197;42.130;24.746;2022-07-23T10:35:37;10.18;;;4.75;;
8319;SDS011;4197;42.130;24.746;2022-07-23T10:38:12;13.27;;;4.55;;
8319;SDS011;4197;42.130;24.746;2022-07-23T10:40:56;9.93;;;4.35;;
8319;SDS011;4197;42.130;24.746;2022-07-23T10:43:28;16.20;;;4.30;;
8319;SDS011;4197;42.130;24.746;2022-07-23T10:54:53;14.23;;;4.30;;
8319;SDS011;4197;42.130;24.746;2022-07-23T10:57:24;11.90;;;4.88;;
8319;SDS011;4197;42.130;24.746;2022-07-23T11:00:13;7.05;;;4.20;;
8319;SDS011;4197;42.130;24.746;2022-07-23T11:02:49;8.93;;;4.22;;
8319;SDS011;4197;42.130;24.746;2022-07-23T11:05:20;8.55;;;4.80;;
8319;SDS011;4197;42.130;24.746;2022-07-23T11:10:47;9.60;;;3.97;;
8319;SDS011;4197;42.130;24.746;2022-07-23T11:13:27;9.50;;;4.65;;
8319;SDS011;4197;42.130;24.746;2022-07-23T11:16:07;8.70;;;4.40;;
8319;SDS011;4197;42.130;24.746;2022-07-23T11:21:45;12.90;;;4.68;;
8319;SDS011;4197;42.130;24.746;2022-07-23T11:24:18;6.50;;;4.15;;
8319;SDS011;4197;42.130;24.746;2022-07-23T11:27:02;9.05;;;4.60;;
8319;SDS011;4197;42.130;24.746;2022-07-23T11:29:43;10.32;;;4.78;;
8319;SDS011;4197;42.130;24.746;2022-07-23T11:35:19;9.10;;;4.72;;
8319;SDS011;4197;42.130;24.746;2022-07-23T11:38:02;10.45;;;4.68;;
8319;SDS011;4197;42.130;24.746;2022-07-23T11:40:33;10.40;;;4.75;;
8319;SDS011;4197;42.130;24.746;2022-07-23T11:43:02;10.93;;;4.30;;
8319;SDS011;4197;42.130;24.746;2022-07-23T11:45:34;10.38;;;4.60;;
8319;SDS011;4197;42.130;24.746;2022-07-23T11:48:05;7.75;;;4.68;;
8319;SDS011;4197;42.130;24.746;2022-07-23T11:50:34;11.82;;;4.65;;
8319;SDS011;4197;42.130;24.746;2022-07-23T11:53:04;10.10;;;4.50;;
8319;SDS011;4197;42.130;24.746;2022-07-23T11:55:33;9.10;;;5.10;;
8319;SDS011;4197;42.130;24.746;2022-07-23T11:58:01;14.77;;;4.85;;
8319;SDS011;4197;42.130;24.746;2022-07-23T12:00:30;15.18;;;4.47;;
8319;SDS011;4197;42.130;24.746;2022-07-23T12:03:06;9.15;;;4.72;;
8319;SDS011;4197;42.130;24.746;2022-07-23T12:05:36;9.55;;;4.47;;
8319;SDS011;4197;42.130;24.746;2022-07-23T12:08:07;12.20;;;5.45;;
8319;SDS011;4197;42.130;24.746;2022-07-23T12:10:38;12.65;;;5.30;;
8319;SDS011;4197;42.130;24.746;2022-07-23T12:13:09;10.48;;;5.07;;
8319;SDS011;4197;42.130;24.746;2022-07-23T12:15:40;8.50;;;4.88;;
8319;SDS011;4197;42.130;24.746;2022-07-23T12:18:10;12.13;;;5.07;;
8319;SDS011;4197;42.130;24.746;2022-07-23T12:20:40;9.50;;;4.60;;
8319;SDS011;4197;42.130;24.746;2022-07-23T12:23:12;8.18;;;4.43;;
8319;SDS011;4197;42.130;24.746;2022-07-23T12:25:46;10.25;;;4.68;;
8319;SDS011;4197;42.130;24.746;2022-07-23T12:28:16;8.55;;;4.43;;
8319;SDS011;4197;42.130;24.746;2022-07-23T12:30:47;9.02;;;5.30;;
8319;SDS011;4197;42.130;24.746;2022-07-23T12:33:21;9.13;;;4.70;;
8319;SDS011;4197;42.130;24.746;2022-07-23T12:35:51;12.20;;;5.28;;
8319;SDS011;4197;42.130;24.746;2022-07-23T12:38:22;11.13;;;4.80;;
8319;SDS011;4197;42.130;24.746;2022-07-23T12:40:52;7.75;;;4.50;;
8319;SDS011;4197;42.130;24.746;2022-07-23T12:43:22;7.97;;;4.32;;
8319;SDS011;4197;42.130;24.746;2022-07-23T12:45:52;10.30;;;4.53;;
8319;SDS011;4197;42.130;24.746;2022-07-23T12:48:23;12.95;;;4.88;;
8319;SDS011;4197;42.130;24.746;2022-07-23T12:50:56;14.70;;;4.93;;
8319;SDS011;4197;42.130;24.746;2022-07-23T12:53:29;9.18;;;4.68;;
8319;SDS011;4197;42.130;24.746;2022-07-23T12:56:00;8.20;;;4.70;;
8319;SDS011;4197;42.130;24.746;2022-07-23T12:58:41;13.38;;;4.80;;
8319;SDS011;4197;42.130;24.746;2022-07-23T13:01:27;12.57;;;4.53;;
8319;SDS011;4197;42.130;24.746;2022-07-23T13:03:58;15.80;;;5.00;;
8319;SDS011;4197;42.130;24.746;2022-07-23T13:06:37;9.68;;;4.25;;
8319;SDS011;4197;42.130;24.746;2022-07-23T13:09:09;9.73;;;5.40;;
8319;SDS011;4197;42.130;24.746;2022-07-23T13:11:40;13.70;;;4.40;;
8319;SDS011;4197;42.130;24.746;2022-07-23T13:14:09;10.02;;;5.45;;
8319;SDS011;4197;42.130;24.746;2022-07-23T13:16:37;15.10;;;4.75;;
8319;SDS011;4197;42.130;24.746;2022-07-23T13:19:06;10.88;;;4.30;;
8319;SDS011;4197;42.130;24.746;2022-07-23T13:21:38;13.07;;;5.10;;
8319;SDS011;4197;42.130;24.746;2022-07-23T13:24:09;10.90;;;4.70;;
8319;SDS011;4197;42.130;24.746;2022-07-23T13:26:39;11.10;;;4.35;;
8319;SDS011;4197;42.130;24.746;2022-07-23T13:29:07;11.77;;;4.57;;
8319;SDS011;4197;42.130;24.746;2022-07-23T13:31:37;9.88;;;4.72;;
8319;SDS011;4197;42.130;24.746;2022-07-23T13:34:06;9.52;;;4.60;;
8319;SDS011;4197;42.130;24.746;2022-07-23T13:36:34;11.43;;;5.03;;
8319;SDS011;4197;42.130;24.746;2022-07-23T13:39:03;11.55;;;5.25;;
8319;SDS011;4197;42.130;24.746;2022-07-23T13:41:36;11.20;;;5.15;;
8319;SDS011;4197;42.130;24.746;2022-07-23T13:44:05;11.18;;;4.55;;
8319;SDS011;4197;42.130;24.746;2022-07-23T13:46:33;13.77;;;5.32;;
8319;SDS011;4197;42.130;24.746;2022-07-23T13:49:02;12.70;;;5.28;;
8319;SDS011;4197;42.130;24.746;2022-07-23T13:51:32;9.57;;;4.85;;
8319;SDS011;4197;42.130;24.746;2022-07-23T13:54:00;8.40;;;4.97;;
8319;SDS011;4197;42.130;24.746;2022-07-23T13:56:29;10.55;;;4.82;;
8319;SDS011;4197;42.130;24.746;2022-07-23T13:58:58;12.02;;;4.45;;
8319;SDS011;4197;42.130;24.746;2022-07-23T14:01:27;11.80;;;4.80;;
8319;SDS011;4197;42.130;24.746;2022-07-23T14:04:15;11.23;;;4.72;;
8319;SDS011;4197;42.130;24.746;2022-07-23T14:06:44;11.02;;;4.30;;
8319;SDS011;4197;42.130;24.746;2022-07-23T14:09:18;12.02;;;5.00;;
8319;SDS011;4197;42.130;24.746;2022-07-23T14:11:46;13.02;;;5.35;;
8319;SDS011;4197;42.130;24.746;2022-07-23T14:14:17;9.32;;;4.65;;
8319;SDS011;4197;42.130;24.746;2022-07-23T14:16:45;10.65;;;4.55;;
8319;SDS011;4197;42.130;24.746;2022-07-23T14:19:14;13.63;;;4.97;;
8319;SDS011;4197;42.130;24.746;2022-07-23T14:21:42;11.57;;;4.95;;
8319;SDS011;4197;42.130;24.746;2022-07-23T14:24:10;10.18;;;4.75;;
8319;SDS011;4197;42.130;24.746;2022-07-23T14:26:38;10.38;;;4.72;;
8319;SDS011;4197;42.130;24.746;2022-07-23T14:29:07;14.38;;;4.60;;
8319;SDS011;4197;42.130;24.746;2022-07-23T14:31:36;9.25;;;4.70;;
8319;SDS011;4197;42.130;24.746;2022-07-23T14:34:05;9.45;;;4.75;;
8319;SDS011;4197;42.130;24.746;2022-07-23T14:36:33;9.68;;;4.53;;
8319;SDS011;4197;42.130;24.746;2022-07-23T14:39:05;10.10;;;4.70;;
8319;SDS011;4197;42.130;24.746;2022-07-23T14:41:36;13.10;;;4.63;;
8319;SDS011;4197;42.130;24.746;2022-07-23T14:44:04;11.40;;;4.95;;
8319;SDS011;4197;42.130;24.746;2022-07-23T14:46:36;14.60;;;5.20;;
8319;SDS011;4197;42.130;24.746;2022-07-23T14:49:05;10.60;;;5.00;;
8319;SDS011;4197;42.130;24.746;2022-07-23T14:51:34;13.95;;;5.10;;
8319;SDS011;4197;42.130;24.746;2022-07-23T14:54:03;10.57;;;4.68;;
8319;SDS011;4197;42.130;24.746;2022-07-23T14:56:32;10.65;;;4.68;;
8319;SDS011;4197;42.130;24.746;2022-07-23T14:59:02;8.93;;;5.00;;
8319;SDS011;4197;42.130;24.746;2022-07-23T15:01:32;7.80;;;4.65;;
8319;SDS011;4197;42.130;24.746;2022-07-23T15:04:02;12.98;;;4.80;;
8319;SDS011;4197;42.130;24.746;2022-07-23T15:06:50;15.90;;;5.22;;
8319;SDS011;4197;42.130;24.746;2022-07-23T15:09:19;10.82;;;5.10;;
8319;SDS011;4197;42.130;24.746;2022-07-23T15:11:47;10.90;;;4.68;;
8319;SDS011;4197;42.130;24.746;2022-07-23T15:14:15;10.13;;;4.82;;
8319;SDS011;4197;42.130;24.746;2022-07-23T15:16:54;12.05;;;4.45;;
8319;SDS011;4197;42.130;24.746;2022-07-23T15:19:24;11.40;;;4.53;;
8319;SDS011;4197;42.130;24.746;2022-07-23T15:21:56;13.05;;;4.90;;
8319;SDS011;4197;42.130;24.746;2022-07-23T15:24:27;10.68;;;5.18;;
8319;SDS011;4197;42.130;24.746;2022-07-23T15:26:56;9.65;;;4.75;;
8319;SDS011;4197;42.130;24.746;2022-07-23T15:29:24;13.65;;;4.93;;